createdAt,value
2023-04-25T00:00:20.857Z,5.63
2023-04-25T00:00:53.628Z,5.56
2023-04-25T00:01:26.173Z,5.56
2023-04-25T00:02:00.860Z,5.56
2023-04-25T00:02:33.641Z,5.56
2023-04-25T00:03:07.596Z,5.56
2023-04-25T00:03:41.515Z,5.56
2023-04-25T00:04:14.437Z,5.56
2023-04-25T00:04:50.012Z,5.50
2023-04-25T00:05:25.420Z,5.50
2023-04-25T00:06:03.373Z,5.50
2023-04-25T00:06:37.260Z,5.50
2023-04-25T00:07:11.533Z,5.50
2023-04-25T00:07:44.079Z,5.50
2023-04-25T00:08:16.518Z,5.50
2023-04-25T00:08:50.785Z,5.56
2023-04-25T00:09:23.537Z,5.50
2023-04-25T00:09:56.155Z,5.50
2023-04-25T00:10:29.621Z,5.50
2023-04-25T00:11:02.605Z,5.50
2023-04-25T00:11:35.394Z,5.50
2023-04-25T00:12:09.198Z,5.50
2023-04-25T00:12:42.428Z,5.56
2023-04-25T00:13:15.936Z,5.56
2023-04-25T00:13:50.792Z,5.56
2023-04-25T00:14:24.681Z,5.56
2023-04-25T00:15:14.818Z,5.63
2023-04-25T00:15:49.202Z,5.63
2023-04-25T00:16:22.967Z,5.63
2023-04-25T00:16:55.820Z,5.63
2023-04-25T00:17:28.973Z,5.69
2023-04-25T00:18:03.020Z,5.69
2023-04-25T00:18:35.852Z,5.69
2023-04-25T00:19:08.647Z,5.75
2023-04-25T00:19:42.655Z,5.75
2023-04-25T00:20:15.450Z,5.75
2023-04-25T00:20:48.021Z,5.81
2023-04-25T00:21:21.446Z,5.81
2023-04-25T00:21:54.969Z,5.81
2023-04-25T00:22:27.524Z,5.81
2023-04-25T00:23:00.023Z,5.88
2023-04-25T00:23:33.430Z,5.88
2023-04-25T00:24:06.721Z,5.88
2023-04-25T00:24:39.198Z,5.88
2023-04-25T00:25:12.779Z,5.88
2023-04-25T00:25:45.773Z,5.88
2023-04-25T00:26:18.271Z,5.88
2023-04-25T00:26:51.698Z,5.94
2023-04-25T00:27:24.121Z,5.94
2023-04-25T00:27:56.689Z,5.94
2023-04-25T00:28:30.244Z,5.94
2023-04-25T00:29:04.134Z,5.94
2023-04-25T00:29:36.612Z,6.00
2023-04-25T00:30:11.332Z,6.00
2023-04-25T00:30:44.616Z,6.00
2023-04-25T00:31:17.261Z,6.00
2023-04-25T00:31:49.791Z,6.00
2023-04-25T00:32:23.397Z,6.00
2023-04-25T00:32:56.277Z,6.00
2023-04-25T00:33:28.823Z,6.00
2023-04-25T00:34:02.426Z,6.06
2023-04-25T00:34:34.874Z,6.00
2023-04-25T00:35:07.980Z,6.00
2023-04-25T00:35:41.523Z,6.00
2023-04-25T00:36:14.884Z,6.00
2023-04-25T00:36:47.448Z,6.00
2023-04-25T00:37:21.193Z,5.94
2023-04-25T00:37:53.652Z,5.94
2023-04-25T00:38:26.175Z,5.94
2023-04-25T00:39:02.482Z,5.94
2023-04-25T00:39:35.582Z,5.94
2023-04-25T00:40:08.969Z,5.94
2023-04-25T00:40:44.578Z,5.88
2023-04-25T00:41:17.177Z,5.88
2023-04-25T00:41:49.807Z,5.88
2023-04-25T00:42:22.638Z,5.88
2023-04-25T00:42:56.432Z,5.81
2023-04-25T00:43:30.253Z,5.81
2023-04-25T00:44:05.398Z,5.81
2023-04-25T00:44:39.611Z,5.81
2023-04-25T00:45:15.364Z,5.75
2023-04-25T00:45:49.132Z,5.75
2023-04-25T00:46:22.988Z,5.75
2023-04-25T00:46:55.824Z,5.75
2023-04-25T00:47:29.395Z,5.75
2023-04-25T00:48:03.039Z,5.69
2023-04-25T00:48:35.553Z,5.69
2023-04-25T00:49:08.697Z,5.69
2023-04-25T00:49:42.267Z,5.69
2023-04-25T00:50:15.089Z,5.63
2023-04-25T00:50:52.113Z,5.63
2023-04-25T00:51:27.451Z,5.63
2023-04-25T00:52:00.571Z,5.63
2023-04-25T00:52:33.299Z,5.56
2023-04-25T00:53:07.103Z,5.56
2023-04-25T00:53:39.571Z,5.56
2023-04-25T00:54:13.043Z,5.56
2023-04-25T00:54:46.465Z,5.56
2023-04-25T00:55:19.032Z,5.56
2023-04-25T00:55:52.555Z,5.56
2023-04-25T00:56:26.079Z,5.56
2023-04-25T00:56:58.824Z,5.56
2023-04-25T00:57:31.387Z,5.56
2023-04-25T00:58:04.914Z,5.56
2023-04-25T00:58:38.427Z,5.56
2023-04-25T00:59:12.637Z,5.56
2023-04-25T00:59:48.216Z,5.50
2023-04-25T01:00:21.750Z,5.50
2023-04-25T01:00:54.939Z,5.50
2023-04-25T01:01:29.007Z,5.50
2023-04-25T01:02:01.992Z,5.50
2023-04-25T01:02:35.008Z,5.50
2023-04-25T01:03:08.819Z,5.50
2023-04-25T01:03:42.258Z,5.44
2023-04-25T01:04:15.723Z,5.44
2023-04-25T01:04:50.354Z,5.44
2023-04-25T01:05:23.064Z,5.44
2023-04-25T01:05:56.248Z,5.44
2023-04-25T01:06:30.322Z,5.38
2023-04-25T01:07:03.786Z,5.38
2023-04-25T01:07:36.497Z,5.38
2023-04-25T01:08:10.320Z,5.31
2023-04-25T01:08:42.826Z,5.31
2023-04-25T01:09:17.025Z,5.31
2023-04-25T01:09:51.251Z,5.31
2023-04-25T01:10:23.940Z,5.31
2023-04-25T01:10:56.497Z,5.31
2023-04-25T01:11:30.058Z,5.25
2023-04-25T01:12:03.833Z,5.25
2023-04-25T01:12:36.417Z,5.25
2023-04-25T01:13:10.727Z,5.19
2023-04-25T01:13:43.290Z,5.19
2023-04-25T01:14:18.520Z,5.19
2023-04-25T01:14:51.148Z,5.13
2023-04-25T01:15:23.659Z,5.13
2023-04-25T01:15:57.504Z,5.13
2023-04-25T01:16:30.155Z,5.13
2023-04-25T01:17:03.489Z,5.06
2023-04-25T01:17:37.628Z,5.06
2023-04-25T01:18:10.758Z,5.06
2023-04-25T01:18:44.512Z,5.00
2023-04-25T01:19:19.186Z,5.00
2023-04-25T01:19:53.768Z,5.00
2023-04-25T01:20:27.879Z,4.94
2023-04-25T01:21:09.063Z,4.94
2023-04-25T01:21:42.568Z,4.94
2023-04-25T01:22:15.555Z,4.94
2023-04-25T01:22:49.221Z,4.88
2023-04-25T01:23:22.044Z,4.88
2023-04-25T01:23:55.870Z,4.88
2023-04-25T01:24:28.634Z,4.88
2023-04-25T01:25:03.640Z,4.88
2023-04-25T01:25:37.461Z,4.81
2023-04-25T01:26:11.748Z,4.81
2023-04-25T01:26:50.577Z,4.81
2023-04-25T01:27:27.393Z,4.75
2023-04-25T01:28:00.496Z,4.75
2023-04-25T01:28:36.496Z,4.75
2023-04-25T01:29:09.492Z,4.69
2023-04-25T01:29:42.290Z,4.69
2023-04-25T01:30:16.154Z,4.69
2023-04-25T01:30:48.874Z,4.63
2023-04-25T01:31:21.516Z,4.63
2023-04-25T01:31:55.198Z,4.63
2023-04-25T01:32:28.360Z,4.63
2023-04-25T01:33:02.388Z,4.56
2023-04-25T01:33:36.156Z,4.56
2023-04-25T01:34:08.668Z,4.56
2023-04-25T01:34:41.202Z,4.56
2023-04-25T01:35:15.121Z,4.50
2023-04-25T01:35:48.253Z,4.50
2023-04-25T01:36:22.596Z,4.56
2023-04-25T01:36:56.845Z,4.56
2023-04-25T01:37:29.586Z,4.56
2023-04-25T01:38:02.433Z,4.63
2023-04-25T01:38:36.254Z,4.63
2023-04-25T01:39:08.928Z,4.63
2023-04-25T01:39:41.589Z,4.63
2023-04-25T01:40:15.881Z,4.69
2023-04-25T01:40:50.048Z,4.69
2023-04-25T01:41:25.444Z,4.69
2023-04-25T01:42:01.220Z,4.75
2023-04-25T01:42:34.245Z,4.75
2023-04-25T01:43:07.157Z,4.75
2023-04-25T01:43:41.456Z,4.75
2023-04-25T01:44:14.442Z,4.81
2023-04-25T01:44:46.984Z,4.81
2023-04-25T01:45:20.799Z,4.88
2023-04-25T01:45:54.633Z,4.88
2023-04-25T01:46:27.370Z,4.94
2023-04-25T01:47:01.072Z,5.00
2023-04-25T01:47:36.126Z,5.00
2023-04-25T01:48:09.097Z,5.06
2023-04-25T01:48:43.385Z,5.13
2023-04-25T01:49:15.891Z,5.13
2023-04-25T01:49:50.069Z,5.19
2023-04-25T01:50:23.553Z,5.25
2023-04-25T01:50:56.089Z,5.25
2023-04-25T01:51:31.069Z,5.31
2023-04-25T01:52:04.621Z,5.31
2023-04-25T01:52:37.258Z,5.38
2023-04-25T01:53:11.515Z,5.38
2023-04-25T01:53:45.534Z,5.38
2023-04-25T01:54:19.518Z,5.44
2023-04-25T01:54:53.341Z,5.44
2023-04-25T01:55:26.949Z,5.44
2023-04-25T01:56:06.706Z,5.44
2023-04-25T01:56:41.276Z,5.44
2023-04-25T01:57:17.528Z,5.44
2023-04-25T01:57:51.050Z,5.44
2023-04-25T01:58:25.570Z,5.44
2023-04-25T01:59:28.062Z,5.44
2023-04-25T02:00:14.169Z,5.44
2023-04-25T02:00:48.152Z,5.44
2023-04-25T02:01:20.644Z,5.44
2023-04-25T02:02:06.305Z,5.44
2023-04-25T02:02:41.162Z,5.44
2023-04-25T02:03:23.725Z,5.44
2023-04-25T02:03:57.124Z,5.44
2023-04-25T02:04:40.290Z,5.44
2023-04-25T02:05:13.030Z,5.44
2023-04-25T02:05:48.340Z,5.44
2023-04-25T02:06:22.057Z,5.44
2023-04-25T02:06:56.823Z,5.44
2023-04-25T02:07:30.826Z,5.44
2023-04-25T02:08:04.580Z,5.44
2023-04-25T02:08:38.545Z,5.44
2023-04-25T02:09:11.088Z,5.44
2023-04-25T02:09:49.515Z,5.44
2023-04-25T02:10:23.880Z,5.44
2023-04-25T02:11:07.918Z,5.44
2023-04-25T02:11:47.412Z,5.50
2023-04-25T02:12:41.167Z,5.50
2023-04-25T02:13:26.944Z,5.50
2023-04-25T02:14:19.703Z,5.50
2023-04-25T02:15:09.828Z,5.56
2023-04-25T02:15:57.053Z,5.56
2023-04-25T02:16:31.806Z,5.56
2023-04-25T02:17:06.771Z,5.56
2023-04-25T02:17:40.147Z,5.63
2023-04-25T02:18:14.077Z,5.63
2023-04-25T02:18:47.905Z,5.63
2023-04-25T02:19:20.331Z,5.63
2023-04-25T02:19:54.370Z,5.63
2023-04-25T02:20:27.167Z,5.63
2023-04-25T02:21:00.259Z,5.63
2023-04-25T02:21:36.627Z,5.63
2023-04-25T02:22:11.637Z,5.63
2023-04-25T02:22:44.143Z,5.63
2023-04-25T02:23:17.629Z,5.56
2023-04-25T02:23:55.742Z,5.56
2023-04-25T02:24:28.992Z,5.56
2023-04-25T02:25:08.110Z,5.56
2023-04-25T02:25:40.726Z,5.56
2023-04-25T02:26:14.322Z,5.56
2023-04-25T02:26:50.238Z,5.56
2023-04-25T02:27:22.823Z,5.56
2023-04-25T02:27:55.715Z,5.56
2023-04-25T02:28:29.264Z,5.56
2023-04-25T02:29:02.284Z,5.56
2023-04-25T02:29:34.787Z,5.56
2023-04-25T02:30:08.398Z,5.56
2023-04-25T02:30:41.835Z,5.56
2023-04-25T02:31:14.336Z,5.56
2023-04-25T02:31:46.852Z,5.50
2023-04-25T02:32:20.407Z,5.44
2023-04-25T02:32:53.646Z,5.38
2023-04-25T02:33:26.152Z,5.38
2023-04-25T02:33:59.632Z,5.31
2023-04-25T02:34:33.546Z,5.25
2023-04-25T02:35:07.831Z,5.19
2023-04-25T02:35:41.443Z,5.19
2023-04-25T02:36:13.903Z,5.13
2023-04-25T02:36:49.094Z,5.13
2023-04-25T02:37:29.421Z,5.06
2023-04-25T02:38:01.939Z,5.00
2023-04-25T02:38:34.479Z,5.00
2023-04-25T02:39:07.959Z,4.94
2023-04-25T02:39:40.727Z,4.94
2023-04-25T02:40:13.436Z,4.88
2023-04-25T02:40:47.065Z,4.88
2023-04-25T02:41:19.494Z,4.81
2023-04-25T02:41:52.009Z,4.81
2023-04-25T02:42:25.464Z,4.75
2023-04-25T02:42:57.928Z,4.75
2023-04-25T02:43:32.857Z,4.75
2023-04-25T02:44:06.364Z,4.75
2023-04-25T02:44:38.818Z,4.69
2023-04-25T02:45:15.292Z,4.69
2023-04-25T02:45:47.753Z,4.69
2023-04-25T02:46:32.141Z,4.69
2023-04-25T02:47:21.121Z,4.69
2023-04-25T02:47:56.037Z,4.69
2023-04-25T02:48:29.447Z,4.69
2023-04-25T02:49:17.611Z,4.69
2023-04-25T02:49:51.934Z,4.69
2023-04-25T02:50:25.551Z,4.69
2023-04-25T02:51:03.862Z,4.69
2023-04-25T02:51:38.853Z,4.69
2023-04-25T02:52:36.853Z,4.69
2023-04-25T02:53:23.037Z,4.69
2023-04-25T02:54:06.859Z,4.69
2023-04-25T02:54:46.154Z,4.69
2023-04-25T02:55:18.849Z,4.69
2023-04-25T02:55:53.578Z,4.69
2023-04-25T02:56:27.802Z,4.69
2023-04-25T02:57:00.361Z,4.75
2023-04-25T02:57:48.697Z,4.75
2023-04-25T02:58:33.421Z,4.81
2023-04-25T02:59:05.913Z,4.88
2023-04-25T02:59:38.893Z,4.88
2023-04-25T03:00:18.935Z,4.94
2023-04-25T03:00:51.558Z,4.94
2023-04-25T03:01:24.217Z,5.00
2023-04-25T03:01:58.015Z,5.06
2023-04-25T03:02:30.957Z,5.06
2023-04-25T03:03:04.994Z,5.13
2023-04-25T03:03:38.635Z,5.13
2023-04-25T03:04:11.239Z,5.19
2023-04-25T03:04:43.862Z,5.19
2023-04-25T03:05:17.709Z,5.25
2023-04-25T03:05:51.374Z,5.25
2023-04-25T03:06:28.476Z,5.31
2023-04-25T03:07:02.576Z,5.31
2023-04-25T03:07:37.550Z,5.38
2023-04-25T03:08:10.028Z,5.38
2023-04-25T03:08:45.069Z,5.38
2023-04-25T03:09:17.830Z,5.38
2023-04-25T03:09:50.576Z,5.38
2023-04-25T03:10:24.113Z,5.38
2023-04-25T03:10:56.775Z,5.38
2023-04-25T03:11:29.279Z,5.38
2023-04-25T03:12:02.879Z,5.38
2023-04-25T03:12:35.336Z,5.38
2023-04-25T03:13:07.987Z,5.38
2023-04-25T03:13:41.487Z,5.38
2023-04-25T03:14:16.147Z,5.38
2023-04-25T03:14:48.578Z,5.38
2023-04-25T03:15:25.522Z,5.38
2023-04-25T03:15:58.807Z,5.38
2023-04-25T03:16:33.199Z,5.38
2023-04-25T03:17:05.791Z,5.38
2023-04-25T03:17:41.636Z,5.31
2023-04-25T03:18:16.176Z,5.31
2023-04-25T03:18:48.936Z,5.31
2023-04-25T03:19:22.079Z,5.31
2023-04-25T03:19:56.210Z,5.31
2023-04-25T03:20:28.990Z,5.25
2023-04-25T03:21:01.881Z,5.25
2023-04-25T03:21:39.876Z,5.25
2023-04-25T03:22:12.533Z,5.25
2023-04-25T03:22:46.620Z,5.25
2023-04-25T03:23:20.317Z,5.25
2023-04-25T03:23:53.283Z,5.19
2023-04-25T03:24:27.296Z,5.19
2023-04-25T03:25:04.952Z,5.19
2023-04-25T03:25:37.442Z,5.19
2023-04-25T03:26:11.683Z,5.13
2023-04-25T03:26:47.053Z,5.13
2023-04-25T03:27:20.268Z,5.13
2023-04-25T03:27:54.464Z,5.13
2023-04-25T03:28:27.294Z,5.13
2023-04-25T03:29:02.048Z,5.13
2023-04-25T03:29:36.495Z,5.06
2023-04-25T03:30:11.227Z,5.06
2023-04-25T03:30:45.714Z,5.06
2023-04-25T03:31:18.555Z,5.06
2023-04-25T03:31:51.513Z,5.06
2023-04-25T03:32:27.969Z,5.00
2023-04-25T03:33:00.641Z,5.00
2023-04-25T03:33:33.447Z,5.00
2023-04-25T03:34:06.925Z,5.00
2023-04-25T03:34:39.408Z,5.00
2023-04-25T03:35:11.894Z,4.94
2023-04-25T03:35:45.404Z,4.94
2023-04-25T03:36:19.100Z,4.94
2023-04-25T03:36:53.151Z,4.94
2023-04-25T03:37:25.934Z,4.94
2023-04-25T03:38:00.764Z,4.94
2023-04-25T03:38:37.470Z,4.88
2023-04-25T03:39:11.856Z,4.88
2023-04-25T03:39:46.973Z,4.88
2023-04-25T03:40:19.637Z,4.88
2023-04-25T03:41:12.528Z,4.88
2023-04-25T03:41:48.913Z,4.88
2023-04-25T03:42:24.076Z,4.88
2023-04-25T03:42:58.002Z,4.88
2023-04-25T03:43:30.562Z,4.81
2023-04-25T03:44:09.754Z,4.81
2023-04-25T03:44:42.265Z,4.81
2023-04-25T03:45:16.002Z,4.81
2023-04-25T03:45:48.561Z,4.81
2023-04-25T03:46:22.903Z,4.81
2023-04-25T03:46:56.610Z,4.81
2023-04-25T03:47:30.465Z,4.81
2023-04-25T03:48:04.359Z,4.81
2023-04-25T03:48:37.953Z,4.81
2023-04-25T03:49:10.924Z,4.81
2023-04-25T03:50:03.880Z,4.75
2023-04-25T03:50:36.635Z,4.75
2023-04-25T03:51:09.286Z,4.75
2023-04-25T03:51:46.462Z,4.75
2023-04-25T03:52:19.292Z,4.75
2023-04-25T03:52:52.994Z,4.75
2023-04-25T03:53:28.311Z,4.75
2023-04-25T03:54:20.477Z,4.75
2023-04-25T03:55:05.739Z,4.75
2023-04-25T03:55:38.411Z,4.75
2023-04-25T03:56:11.029Z,4.75
2023-04-25T03:56:46.179Z,4.75
2023-04-25T03:57:24.965Z,4.75
2023-04-25T03:57:58.973Z,4.75
2023-04-25T03:58:32.534Z,4.75
2023-04-25T03:59:05.072Z,4.75
2023-04-25T03:59:37.911Z,4.75
2023-04-25T04:00:12.469Z,4.75
2023-04-25T04:00:47.940Z,4.81
2023-04-25T04:01:21.075Z,4.81
2023-04-25T04:01:54.611Z,4.81
2023-04-25T04:02:36.071Z,4.81
2023-04-25T04:03:09.935Z,4.81
2023-04-25T04:03:42.910Z,4.81
2023-04-25T04:04:16.219Z,4.81
2023-04-25T04:04:50.969Z,4.81
2023-04-25T04:05:24.486Z,4.81
2023-04-25T04:06:00.951Z,4.75
2023-04-25T04:06:34.921Z,4.75
2023-04-25T04:07:14.101Z,4.75
2023-04-25T04:07:48.647Z,4.75
2023-04-25T04:08:23.886Z,4.75
2023-04-25T04:08:57.797Z,4.69
2023-04-25T04:09:31.580Z,4.69
2023-04-25T04:10:07.222Z,4.69
2023-04-25T04:10:42.604Z,4.69
2023-04-25T04:11:16.658Z,4.69
2023-04-25T04:11:49.196Z,4.69
2023-04-25T04:12:21.819Z,4.63
2023-04-25T04:12:55.270Z,4.63
2023-04-25T04:13:28.443Z,4.63
2023-04-25T04:14:00.977Z,4.63
2023-04-25T04:14:35.047Z,4.63
2023-04-25T04:15:08.538Z,4.63
2023-04-25T04:15:42.074Z,4.56
2023-04-25T04:16:15.977Z,4.56
2023-04-25T04:16:48.601Z,4.56
2023-04-25T04:17:21.553Z,4.56
2023-04-25T04:17:55.908Z,4.56
2023-04-25T04:18:28.610Z,4.50
2023-04-25T04:19:02.922Z,4.50
2023-04-25T04:19:37.131Z,4.56
2023-04-25T04:20:18.486Z,4.56
2023-04-25T04:20:52.014Z,4.56
2023-04-25T04:21:24.694Z,4.56
2023-04-25T04:21:57.330Z,4.56
2023-04-25T04:22:30.774Z,4.56
2023-04-25T04:23:06.534Z,4.63
2023-04-25T04:23:40.074Z,4.63
2023-04-25T04:24:15.950Z,4.63
2023-04-25T04:25:04.177Z,4.69
2023-04-25T04:26:17.351Z,4.75
2023-04-25T04:27:00.883Z,4.75
2023-04-25T04:27:45.716Z,4.81
2023-04-25T04:28:30.757Z,4.81
2023-04-25T04:29:11.689Z,4.81
2023-04-25T04:29:48.202Z,4.88
2023-04-25T04:30:26.846Z,4.88
2023-04-25T04:31:05.005Z,4.88
2023-04-25T04:31:38.746Z,4.94
2023-04-25T04:32:11.893Z,4.94
2023-04-25T04:32:44.586Z,4.94
2023-04-25T04:33:19.884Z,5.00
2023-04-25T04:33:58.456Z,5.00
2023-04-25T04:34:31.974Z,5.00
2023-04-25T04:35:07.641Z,5.00
2023-04-25T04:35:40.532Z,5.06
2023-04-25T04:36:13.036Z,5.06
2023-04-25T04:36:47.187Z,5.06
2023-04-25T04:37:19.745Z,5.06
2023-04-25T04:37:52.367Z,5.13
2023-04-25T04:38:27.360Z,5.13
2023-04-25T04:39:04.261Z,5.13
2023-04-25T04:39:51.150Z,5.19
2023-04-25T04:40:32.309Z,5.19
2023-04-25T04:41:17.389Z,5.25
2023-04-25T04:42:02.658Z,5.25
2023-04-25T04:42:54.338Z,5.25
2023-04-25T04:43:54.208Z,5.25
2023-04-25T04:44:45.999Z,5.25
2023-04-25T04:45:30.426Z,5.31
2023-04-25T04:46:15.600Z,5.31
2023-04-25T04:47:15.401Z,5.31
2023-04-25T04:48:07.860Z,5.31
2023-04-25T04:48:48.161Z,5.31
2023-04-25T04:49:41.268Z,5.31
2023-04-25T04:50:47.216Z,5.25
2023-04-25T04:51:51.838Z,5.25
2023-04-25T04:52:48.232Z,5.25
2023-04-25T04:53:53.290Z,5.25
2023-04-25T04:54:36.506Z,5.25
2023-04-25T04:55:28.832Z,5.25
2023-04-25T04:56:14.446Z,5.19
2023-04-25T04:56:59.588Z,5.25
2023-04-25T04:57:53.352Z,5.25
2023-04-25T04:58:46.066Z,5.25
2023-04-25T04:59:29.228Z,5.25
2023-04-25T05:00:13.966Z,5.25
2023-04-25T05:01:19.745Z,5.25
2023-04-25T05:02:21.460Z,5.25
2023-04-25T05:03:14.200Z,5.25
2023-04-25T05:04:08.246Z,5.25
2023-04-25T05:05:00.373Z,5.31
2023-04-25T05:05:55.551Z,5.31
2023-04-25T05:06:32.205Z,5.31
2023-04-25T05:07:23.020Z,5.31
2023-04-25T05:08:13.886Z,5.38
2023-04-25T05:09:06.188Z,5.38
2023-04-25T05:10:12.336Z,5.44
2023-04-25T05:10:46.147Z,5.44
2023-04-25T05:11:31.521Z,5.44
2023-04-25T05:12:31.525Z,5.50
2023-04-25T05:13:22.594Z,5.50
2023-04-25T05:14:06.919Z,5.56
2023-04-25T05:14:59.781Z,5.56
2023-04-25T05:15:51.731Z,5.56
2023-04-25T05:16:43.435Z,5.56
2023-04-25T05:17:52.275Z,5.63
2023-04-25T05:18:34.308Z,5.63
2023-04-25T05:19:14.025Z,5.69
2023-04-25T05:19:58.703Z,5.69
2023-04-25T05:20:41.903Z,5.69
2023-04-25T05:21:44.116Z,5.69
2023-04-25T05:22:31.501Z,5.69
2023-04-25T05:23:17.656Z,5.69
2023-04-25T05:24:04.818Z,5.75
2023-04-25T05:24:56.345Z,5.75
2023-04-25T05:25:59.756Z,5.75
2023-04-25T05:26:46.252Z,5.75
2023-04-25T05:27:48.521Z,5.75
2023-04-25T05:28:44.296Z,5.75
2023-04-25T05:29:50.086Z,5.75
2023-04-25T05:30:45.834Z,5.75
2023-04-25T05:31:25.328Z,5.81
2023-04-25T05:32:07.186Z,5.81
2023-04-25T05:32:41.464Z,5.81
2023-04-25T05:33:14.184Z,5.81
2023-04-25T05:33:46.719Z,5.81
2023-04-25T05:34:20.426Z,5.81
2023-04-25T05:35:01.870Z,5.88
2023-04-25T05:35:39.462Z,5.88
2023-04-25T05:36:13.042Z,5.88
2023-04-25T05:36:45.699Z,5.88
2023-04-25T05:37:18.180Z,5.88
2023-04-25T05:38:01.610Z,5.94
2023-04-25T05:38:52.906Z,5.94
2023-04-25T05:39:29.384Z,5.94
2023-04-25T05:40:22.216Z,5.94
2023-04-25T05:41:15.368Z,5.94
2023-04-25T05:42:02.968Z,5.94
2023-04-25T05:42:56.429Z,5.94
2023-04-25T05:43:35.346Z,5.94
2023-04-25T05:44:25.358Z,5.94
2023-04-25T05:45:18.505Z,5.94
2023-04-25T05:46:05.267Z,5.94
2023-04-25T05:46:56.412Z,5.94
2023-04-25T05:48:01.860Z,6.00
2023-04-25T05:48:45.229Z,6.00
2023-04-25T05:49:40.424Z,6.00
2023-04-25T05:50:31.633Z,6.00
2023-04-25T05:51:11.601Z,6.00
2023-04-25T05:52:04.066Z,6.00
2023-04-25T05:52:56.189Z,6.00
2023-04-25T05:53:36.987Z,6.00
2023-04-25T05:54:11.720Z,6.00
2023-04-25T05:54:44.497Z,6.00
2023-04-25T05:55:18.080Z,6.00
2023-04-25T05:55:50.544Z,6.00
2023-04-25T05:56:29.695Z,6.00
2023-04-25T05:57:04.076Z,6.00
2023-04-25T05:57:37.143Z,6.06
2023-04-25T05:58:10.432Z,6.06
2023-04-25T05:58:44.003Z,6.06
2023-04-25T05:59:17.978Z,6.13
2023-04-25T05:59:50.464Z,6.13
2023-04-25T06:00:24.892Z,6.19
2023-04-25T06:00:57.509Z,6.19
2023-04-25T06:01:29.953Z,6.25
2023-04-25T06:02:03.466Z,6.25
2023-04-25T06:02:39.135Z,6.31
2023-04-25T06:03:12.333Z,6.38
2023-04-25T06:03:46.423Z,6.38
2023-04-25T06:04:19.176Z,6.38
2023-04-25T06:04:56.229Z,6.38
2023-04-25T06:05:30.340Z,6.44
2023-04-25T06:06:03.404Z,6.44
2023-04-25T06:06:36.427Z,6.38
2023-04-25T06:07:10.002Z,6.44
2023-04-25T06:07:45.651Z,6.44
2023-04-25T06:08:19.987Z,6.44
2023-04-25T06:08:52.584Z,6.38
2023-04-25T06:09:26.065Z,6.38
2023-04-25T06:10:01.978Z,6.38
2023-04-25T06:10:34.479Z,6.38
2023-04-25T06:11:08.074Z,6.38
2023-04-25T06:11:42.464Z,6.38
2023-04-25T06:12:15.566Z,6.44
2023-04-25T06:12:49.137Z,6.44
2023-04-25T06:13:23.150Z,6.50
2023-04-25T06:13:55.818Z,6.50
2023-04-25T06:14:29.759Z,6.56
2023-04-25T06:15:04.773Z,6.56
2023-04-25T06:15:40.829Z,6.63
2023-04-25T06:16:14.405Z,6.63
2023-04-25T06:16:46.925Z,6.63
2023-04-25T06:17:19.538Z,6.63
2023-04-25T06:17:56.270Z,6.63
2023-04-25T06:18:28.905Z,6.63
2023-04-25T06:19:01.568Z,6.56
2023-04-25T06:19:35.365Z,6.56
2023-04-25T06:20:09.985Z,6.56
2023-04-25T06:20:42.535Z,6.56
2023-04-25T06:21:16.177Z,6.56
2023-04-25T06:21:48.657Z,6.50
2023-04-25T06:22:21.402Z,6.50
2023-04-25T06:22:55.107Z,6.44
2023-04-25T06:23:34.219Z,6.44
2023-04-25T06:24:13.787Z,6.38
2023-04-25T06:24:46.818Z,6.38
2023-04-25T06:25:19.743Z,6.31
2023-04-25T06:25:53.323Z,6.31
2023-04-25T06:26:26.368Z,6.25
2023-04-25T06:27:00.928Z,6.25
2023-04-25T06:27:34.374Z,6.19
2023-04-25T06:28:08.055Z,6.13
2023-04-25T06:28:41.354Z,6.13
2023-04-25T06:29:16.099Z,6.06
2023-04-25T06:29:48.541Z,6.06
2023-04-25T06:30:24.427Z,6.00
2023-04-25T06:30:59.810Z,6.00
2023-04-25T06:31:33.816Z,5.94
2023-04-25T06:32:08.181Z,5.94
2023-04-25T06:32:41.016Z,5.94
2023-04-25T06:33:13.645Z,5.94
2023-04-25T06:33:49.391Z,5.94
2023-04-25T06:34:22.058Z,5.88
2023-04-25T06:34:54.572Z,5.88
2023-04-25T06:35:29.081Z,5.88
2023-04-25T06:36:01.840Z,5.88
2023-04-25T06:36:34.837Z,5.88
2023-04-25T06:37:12.925Z,5.88
2023-04-25T06:37:45.513Z,5.88
2023-04-25T06:38:18.097Z,5.94
2023-04-25T06:38:55.517Z,5.94
2023-04-25T06:39:28.074Z,6.00
2023-04-25T06:40:03.420Z,6.00
2023-04-25T06:40:35.916Z,6.06
2023-04-25T06:41:09.591Z,6.06
2023-04-25T06:41:43.060Z,6.13
2023-04-25T06:42:36.729Z,6.19
2023-04-25T06:43:29.182Z,6.31
2023-04-25T06:44:20.979Z,6.44
2023-04-25T06:44:58.592Z,6.50
2023-04-25T06:45:31.080Z,6.56
2023-04-25T06:46:05.972Z,6.63
2023-04-25T06:46:43.359Z,6.75
2023-04-25T06:47:17.513Z,6.81
2023-04-25T06:47:50.173Z,6.88
2023-04-25T06:48:22.771Z,6.88
2023-04-25T06:48:56.781Z,6.94
2023-04-25T06:49:29.286Z,6.94
2023-04-25T06:50:01.793Z,6.88
2023-04-25T06:50:36.529Z,6.88
2023-04-25T06:51:09.113Z,6.81
2023-04-25T06:51:44.915Z,6.75
2023-04-25T06:52:18.966Z,6.75
2023-04-25T06:52:51.992Z,6.69
2023-04-25T06:53:27.159Z,6.63
2023-04-25T06:54:06.369Z,6.63
2023-04-25T06:54:58.392Z,6.56
2023-04-25T06:55:42.712Z,6.50
2023-04-25T06:56:24.325Z,6.50
2023-04-25T06:57:03.678Z,6.50
2023-04-25T06:57:40.425Z,6.50
2023-04-25T06:58:44.917Z,6.44
2023-04-25T06:59:37.183Z,6.44
2023-04-25T07:00:11.818Z,6.44
2023-04-25T07:00:44.505Z,6.44
2023-04-25T07:01:18.576Z,6.44
2023-04-25T07:01:51.240Z,6.44
2023-04-25T07:02:28.169Z,6.44
2023-04-25T07:03:01.805Z,6.50
2023-04-25T07:03:35.898Z,6.56
2023-04-25T07:04:13.449Z,6.63
2023-04-25T07:04:52.791Z,6.63
2023-04-25T07:05:25.653Z,6.69
2023-04-25T07:05:59.450Z,6.69
2023-04-25T07:06:32.091Z,6.75
2023-04-25T07:07:04.830Z,6.81
2023-04-25T07:07:48.689Z,6.88
2023-04-25T07:08:22.319Z,6.88
2023-04-25T07:08:55.254Z,7.00
2023-04-25T07:09:28.730Z,7.06
2023-04-25T07:10:01.796Z,7.13
2023-04-25T07:10:35.750Z,7.19
2023-04-25T07:11:08.762Z,7.25
2023-04-25T07:11:43.717Z,7.31
2023-04-25T07:12:16.261Z,7.31
2023-04-25T07:12:52.127Z,7.38
2023-04-25T07:13:24.751Z,7.44
2023-04-25T07:13:57.219Z,7.50
2023-04-25T07:14:30.839Z,7.56
2023-04-25T07:15:07.166Z,7.63
2023-04-25T07:15:40.964Z,7.63
2023-04-25T07:16:13.521Z,7.69
2023-04-25T07:16:46.096Z,7.75
2023-04-25T07:17:19.832Z,7.81
2023-04-25T07:17:52.809Z,7.81
2023-04-25T07:18:26.378Z,7.81
2023-04-25T07:19:00.432Z,7.88
2023-04-25T07:19:34.107Z,7.88
2023-04-25T07:20:10.320Z,7.94
2023-04-25T07:20:42.914Z,7.94
2023-04-25T07:21:16.480Z,7.94
2023-04-25T07:21:52.998Z,7.94
2023-04-25T07:22:28.320Z,7.94
2023-04-25T07:23:00.891Z,7.94
2023-04-25T07:23:34.397Z,8.00
2023-04-25T07:24:11.693Z,8.06
2023-04-25T07:24:49.881Z,8.00
2023-04-25T07:25:25.692Z,8.00
2023-04-25T07:25:59.316Z,8.00
2023-04-25T07:26:32.793Z,7.94
2023-04-25T07:27:24.757Z,7.94
2023-04-25T07:28:10.582Z,8.00
2023-04-25T07:28:44.443Z,8.06
2023-04-25T07:29:16.959Z,8.13
2023-04-25T07:29:49.433Z,8.13
2023-04-25T07:30:23.108Z,8.19
2023-04-25T07:30:55.566Z,8.19
2023-04-25T07:31:28.843Z,8.25
2023-04-25T07:32:02.432Z,8.25
2023-04-25T07:32:35.262Z,8.25
2023-04-25T07:33:07.883Z,8.31
2023-04-25T07:33:41.374Z,8.38
2023-04-25T07:34:13.875Z,8.44
2023-04-25T07:34:48.011Z,8.50
2023-04-25T07:35:21.361Z,8.63
2023-04-25T07:35:54.460Z,8.81
2023-04-25T07:36:28.547Z,8.88
2023-04-25T07:37:01.332Z,8.94
2023-04-25T07:37:41.469Z,9.06
2023-04-25T07:38:17.523Z,9.25
2023-04-25T07:38:51.276Z,9.25
2023-04-25T07:39:24.329Z,9.31
2023-04-25T07:39:58.130Z,9.25
2023-04-25T07:40:31.218Z,9.19
2023-04-25T07:41:10.373Z,9.06
2023-04-25T07:41:43.002Z,8.88
2023-04-25T07:42:20.357Z,8.69
2023-04-25T07:42:53.848Z,8.63
2023-04-25T07:43:35.423Z,8.50
2023-04-25T07:44:09.335Z,8.44
2023-04-25T07:44:43.371Z,8.38
2023-04-25T07:45:18.289Z,8.25
2023-04-25T07:45:51.949Z,8.25
2023-04-25T07:46:25.718Z,8.06
2023-04-25T07:46:58.681Z,8.00
2023-04-25T07:47:32.209Z,7.88
2023-04-25T07:48:05.261Z,7.81
2023-04-25T07:48:41.815Z,7.69
2023-04-25T07:49:14.421Z,7.63
2023-04-25T07:49:50.588Z,7.50
2023-04-25T07:50:23.303Z,7.44
2023-04-25T07:50:55.781Z,7.38
2023-04-25T07:51:29.234Z,7.31
2023-04-25T07:52:06.903Z,7.19
2023-04-25T07:52:41.485Z,7.06
2023-04-25T07:53:23.433Z,7.00
2023-04-25T07:54:01.715Z,6.94
2023-04-25T07:54:34.428Z,6.94
2023-04-25T07:55:13.624Z,6.94
2023-04-25T07:56:02.941Z,6.94
2023-04-25T07:56:51.469Z,7.00
2023-04-25T07:57:26.284Z,7.06
2023-04-25T07:57:59.826Z,7.13
2023-04-25T07:58:36.223Z,7.25
2023-04-25T07:59:11.767Z,7.31
2023-04-25T07:59:45.340Z,7.44
2023-04-25T08:00:21.203Z,7.50
2023-04-25T08:01:00.201Z,7.56
2023-04-25T08:01:47.877Z,7.63
2023-04-25T08:02:21.022Z,7.63
2023-04-25T08:02:53.579Z,7.69
2023-04-25T08:03:28.075Z,7.69
2023-04-25T08:04:01.494Z,7.75
2023-04-25T08:04:53.978Z,7.88
2023-04-25T08:05:26.983Z,7.94
2023-04-25T08:06:08.738Z,8.00
2023-04-25T08:06:49.367Z,8.06
2023-04-25T08:07:28.628Z,8.06